Time;durP1;ratioP1;P1;durP2;ratioP2;P2;SDS_P1;SDS_P2;PMS_P1;PMS_P2;Temp;Humidity;BMP_temperature;BMP_pressure;BME280_temperature;BME280_humidity;BME280_pressure;Samples;Min_cycle;Max_cycle;Signal;HPM_P1;HPM_P2
2023/07/05 00:09:18;;;;;;;;;;;;;;;26.46;47.20;100274.19;41847046;28;19928;-82
2023/07/05 00:29:18;;;;;;;;;;;;;;;26.45;46.71;100264.56;41670302;28;20391;-80
2023/07/05 00:49:20;;;;;;;;;;;;;;;26.42;46.94;100276.34;41604216;28;19936;-81
2023/07/05 01:09:21;;;;;;;;;;;;;;;26.39;46.87;100250.13;41590685;28;19921;-84
2023/07/05 01:29:40;;;;;;;;;;;;;;;26.36;46.80;100256.53;41581775;28;19934;-80
2023/07/05 01:49:44;;;;;;;;;;;;;;;26.35;47.07;100248.75;41592770;28;19964;-80
2023/07/05 02:09:44;;;;;;;;;;;;;;;26.33;46.75;100246.25;41637858;28;19925;-80
2023/07/05 02:29:45;;;;;;;;;;;;;;;26.32;46.78;100254.38;41751431;28;19925;-80
2023/07/05 02:49:45;;;;;;;;;;;;;;;26.30;46.88;100240.44;41742381;28;19940;-80
2023/07/05 03:09:48;;;;;;;;;;;;;;;26.29;46.85;100236.94;41745909;28;19929;-81
2023/07/05 03:29:50;;;;;;;;;;;;;;;26.29;46.95;100236.09;41759421;28;19961;-81
2023/07/05 03:49:50;;;;;;;;;;;;;;;26.28;46.52;100251.22;41757138;28;19955;-83
2023/07/05 04:09:51;;;;;;;;;;;;;;;26.27;46.97;100238.91;41765075;28;19987;-81
2023/07/05 04:29:51;;;;;;;;;;;;;;;26.29;47.02;100246.72;41761630;28;19999;-81
2023/07/05 04:49:51;;;;;;;;;;;;;;;26.28;46.75;100259.16;41754113;28;20362;-81
2023/07/05 05:09:52;;;;;;;;;;;;;;;26.30;46.51;100269.63;41776817;28;19929;-80
2023/07/05 05:29:52;;;;;;;;;;;;;;;26.31;46.99;100271.28;41785327;28;19980;-79
2023/07/05 05:49:52;;;;;;;;;;;;;;;26.31;46.57;100260.69;41766204;28;19926;-81
2023/07/05 06:09:52;;;;;;;;;;;;;;;26.32;46.67;100257.03;41755632;28;19999;-82
2023/07/05 06:29:53;;;;;;;;;;;;;;;26.32;46.71;100241.94;41743481;28;19932;-82
2023/07/05 06:49:53;;;;;;;;;;;;;;;26.34;47.02;100233.81;41750869;28;19993;-82
2023/07/05 07:09:53;;;;;;;;;;;;;;;26.35;47.00;100228.34;41731001;28;19925;-81
2023/07/05 07:29:53;;;;;;;;;;;;;;;26.37;46.93;100222.88;41590783;28;20020;-81
2023/07/05 07:49:54;;;;;;;;;;;;;;;26.40;47.02;100227.03;41616660;28;19926;-81
2023/07/05 08:09:54;;;;;;;;;;;;;;;26.41;46.82;100221.56;41609949;28;19933;-80
2023/07/05 08:29:54;;;;;;;;;;;;;;;26.42;46.67;100223.25;41614531;28;20828;-80
2023/07/05 08:50:01;;;;;;;;;;;;;;;26.44;46.98;100210.66;41612720;28;19929;-80
2023/07/05 09:10:10;;;;;;;;;;;;;;;26.46;46.90;100200.69;41604525;28;19932;-82
2023/07/05 09:30:13;;;;;;;;;;;;;;;26.49;46.90;100192.41;41627832;28;20762;-83
2023/07/05 09:50:16;;;;;;;;;;;;;;;26.53;46.53;100191.09;41676844;28;19928;-82
2023/07/05 10:10:16;;;;;;;;;;;;;;;26.55;46.56;100182.13;41821706;28;20451;-82
2023/07/05 10:30:18;;;;;;;;;;;;;;;26.58;46.46;100164.06;41800764;28;19944;-81
2023/07/05 10:50:32;;;;;;;;;;;;;;;26.64;46.68;100149.31;41789393;28;20317;-79
2023/07/05 11:10:36;;;;;;;;;;;;;;;26.73;46.23;100128.94;41803711;28;19928;-81
2023/07/05 11:30:39;;;;;;;;;;;;;;;26.80;46.19;100119.34;41948458;28;19943;-82
2023/07/05 11:50:39;;;;;;;;;;;;;;;26.89;46.16;100097.13;41930159;28;19932;-82
2023/07/05 12:10:51;;;;;;;;;;;;;;;26.98;46.37;100072.22;41917691;28;19916;-80
2023/07/05 12:30:58;;;;;;;;;;;;;;;27.01;46.14;100049.78;41951214;28;19940;-84
2023/07/05 12:51:19;;;;;;;;;;;;;;;27.11;46.27;100005.28;41962103;28;19935;-83
2023/07/05 13:11:22;;;;;;;;;;;;;;;27.24;46.22;99982.69;41964134;28;19991;-82
2023/07/05 13:31:23;;;;;;;;;;;;;;;27.34;45.98;99964.72;41961438;28;19947;-82
2023/07/05 13:51:28;;;;;;;;;;;;;;;27.44;45.53;99924.66;41976094;28;19974;-82
2023/07/05 14:11:36;;;;;;;;;;;;;;;27.54;45.65;99904.03;41946523;28;19928;-79
2023/07/05 14:31:36;;;;;;;;;;;;;;;27.64;45.35;99898.50;41919332;28;19932;-81
2023/07/05 14:51:37;;;;;;;;;;;;;;;27.72;45.55;99885.16;41918240;28;19940;-82
2023/07/05 15:11:40;;;;;;;;;;;;;;;27.78;45.08;99878.31;41902083;28;19956;-82
2023/07/05 15:31:41;;;;;;;;;;;;;;;27.84;45.05;99876.78;41928099;28;19916;-82
2023/07/05 15:51:41;;;;;;;;;;;;;;;27.81;44.98;99885.94;41920092;28;19925;-81
2023/07/05 16:11:42;;;;;;;;;;;;;;;27.83;45.09;99873.31;41977612;28;20368;-82
2023/07/05 16:31:42;;;;;;;;;;;;;;;27.82;44.84;99873.47;41934177;28;19925;-81
2023/07/05 16:51:42;;;;;;;;;;;;;;;27.79;44.91;99869.31;41939566;28;19956;-83
2023/07/05 17:11:44;;;;;;;;;;;;;;;27.74;45.33;99864.53;41951950;28;19929;-82
2023/07/05 17:31:45;;;;;;;;;;;;;;;27.62;45.47;99872.09;41924790;28;19991;-82
2023/07/05 17:51:46;;;;;;;;;;;;;;;27.56;45.30;99878.09;41929249;28;20019;-83
2023/07/05 18:11:46;;;;;;;;;;;;;;;27.51;45.44;99901.69;41902503;28;19928;-83
2023/07/05 18:31:47;;;;;;;;;;;;;;;27.47;45.75;99911.84;41935123;28;19932;-82
2023/07/05 18:51:58;;;;;;;;;;;;;;;27.41;45.50;99943.63;41898764;28;20470;-82
2023/07/05 19:12:02;;;;;;;;;;;;;;;27.37;45.81;99966.19;41905845;28;19928;-82
2023/07/05 19:32:02;;;;;;;;;;;;;;;27.33;45.79;99997.59;41915199;28;19936;-82
2023/07/05 19:52:03;;;;;;;;;;;;;;;27.30;46.18;100014.72;41957632;28;20019;-82
2023/07/05 20:12:10;;;;;;;;;;;;;;;27.24;45.74;100010.09;41924267;28;19975;-81
2023/07/05 20:32:12;;;;;;;;;;;;;;;27.22;46.29;100020.06;41925164;28;19924;-82
2023/07/05 20:52:12;;;;;;;;;;;;;;;27.20;46.19;100018.59;41930794;28;19935;-80
2023/07/05 21:12:13;;;;;;;;;;;;;;;27.18;46.21;100026.69;41938452;28;19967;-82
2023/07/05 21:32:13;;;;;;;;;;;;;;;27.16;46.43;100036.69;41915281;28;20345;-82
2023/07/05 21:52:13;;;;;;;;;;;;;;;27.13;46.15;100042.34;41909625;28;19943;-80
2023/07/05 22:12:13;;;;;;;;;;;;;;;27.11;46.57;100033.69;41916315;28;19925;-82
2023/07/05 22:32:14;;;;;;;;;;;;;;;27.11;46.42;100020.41;41925120;28;19939;-84
2023/07/05 22:52:14;;;;;;;;;;;;;;;27.08;46.28;100069.41;41898952;28;19981;-83
2023/07/05 23:12:16;;;;;;;;;;;;;;;27.06;46.51;100060.78;41907126;28;20391;-82
2023/07/05 23:32:19;;;;;;;;;;;;;;;27.07;46.69;100069.56;41886566;28;24426;-79
2023/07/05 23:52:21;;;;;;;;;;;;;;;27.06;46.18;100086.50;41892325;28;19975;-82
